sensor_id;sensor_type;location;lat;lon;timestamp;temperature;humidity
1468;DHT22;727;48.892;9.544;2022-10-04T00:00:42;5.70;99.90
1468;DHT22;727;48.892;9.544;2022-10-04T00:03:12;5.80;99.90
1468;DHT22;727;48.892;9.544;2022-10-04T00:05:47;5.80;99.90
1468;DHT22;727;48.892;9.544;2022-10-04T00:08:23;5.80;99.90
1468;DHT22;727;48.892;9.544;2022-10-04T00:11:01;5.80;99.90
1468;DHT22;727;48.892;9.544;2022-10-04T00:13:29;5.80;99.90
1468;DHT22;727;48.892;9.544;2022-10-04T00:15:58;5.80;99.90
1468;DHT22;727;48.892;9.544;2022-10-04T00:18:29;5.70;99.90
1468;DHT22;727;48.892;9.544;2022-10-04T00:21:02;5.60;99.90
1468;DHT22;727;48.892;9.544;2022-10-04T00:23:43;5.60;99.90
1468;DHT22;727;48.892;9.544;2022-10-04T00:28:55;5.50;99.90
1468;DHT22;727;48.892;9.544;2022-10-04T00:31:24;5.50;99.90
1468;DHT22;727;48.892;9.544;2022-10-04T00:33:53;5.50;99.90
1468;DHT22;727;48.892;9.544;2022-10-04T00:39:38;5.50;99.90
1468;DHT22;727;48.892;9.544;2022-10-04T00:42:21;5.40;99.90
1468;DHT22;727;48.892;9.544;2022-10-04T00:44:53;5.40;99.90
1468;DHT22;727;48.892;9.544;2022-10-04T00:47:27;5.40;99.90
1468;DHT22;727;48.892;9.544;2022-10-04T00:50:01;5.30;99.90
1468;DHT22;727;48.892;9.544;2022-10-04T00:52:31;5.30;99.90
1468;DHT22;727;48.892;9.544;2022-10-04T00:55:04;5.30;99.90
1468;DHT22;727;48.892;9.544;2022-10-04T00:57:36;5.30;99.90
1468;DHT22;727;48.892;9.544;2022-10-04T01:00:07;5.30;99.90
1468;DHT22;727;48.892;9.544;2022-10-04T01:02:48;5.30;99.90
1468;DHT22;727;48.892;9.544;2022-10-04T01:05:19;5.40;99.90
1468;DHT22;727;48.892;9.544;2022-10-04T01:07:51;5.40;99.90
1468;DHT22;727;48.892;9.544;2022-10-04T01:10:22;5.50;99.90
1468;DHT22;727;48.892;9.544;2022-10-04T01:12:55;5.50;99.90
1468;DHT22;727;48.892;9.544;2022-10-04T01:15:29;5.40;99.90
1468;DHT22;727;48.892;9.544;2022-10-04T01:18:12;5.30;99.90
1468;DHT22;727;48.892;9.544;2022-10-04T01:20:48;5.30;99.90
1468;DHT22;727;48.892;9.544;2022-10-04T01:26:49;5.20;99.90
1468;DHT22;727;48.892;9.544;2022-10-04T01:29:17;5.10;99.90
1468;DHT22;727;48.892;9.544;2022-10-04T01:31:46;5.10;99.90
1468;DHT22;727;48.892;9.544;2022-10-04T01:34:15;5.10;99.90
1468;DHT22;727;48.892;9.544;2022-10-04T01:36:43;5.00;99.90
1468;DHT22;727;48.892;9.544;2022-10-04T01:39:12;5.00;99.90
1468;DHT22;727;48.892;9.544;2022-10-04T01:41:46;5.00;99.90
1468;DHT22;727;48.892;9.544;2022-10-04T01:44:20;5.00;99.90
1468;DHT22;727;48.892;9.544;2022-10-04T01:46:48;4.90;99.90
1468;DHT22;727;48.892;9.544;2022-10-04T01:49:18;4.90;99.90
1468;DHT22;727;48.892;9.544;2022-10-04T01:51:51;4.90;99.90
1468;DHT22;727;48.892;9.544;2022-10-04T01:54:24;4.90;99.90
1468;DHT22;727;48.892;9.544;2022-10-04T01:56:57;4.90;99.90
1468;DHT22;727;48.892;9.544;2022-10-04T01:59:28;4.90;99.90
1468;DHT22;727;48.892;9.544;2022-10-04T02:01:59;5.00;99.90
1468;DHT22;727;48.892;9.544;2022-10-04T02:04:31;5.00;99.90
1468;DHT22;727;48.892;9.544;2022-10-04T02:07:00;5.00;99.90
1468;DHT22;727;48.892;9.544;2022-10-04T02:09:31;5.00;99.90
1468;DHT22;727;48.892;9.544;2022-10-04T02:12:01;5.00;99.90
1468;DHT22;727;48.892;9.544;2022-10-04T02:14:31;4.90;99.90
1468;DHT22;727;48.892;9.544;2022-10-04T02:16:59;4.90;99.90
1468;DHT22;727;48.892;9.544;2022-10-04T02:19:33;4.90;99.90
1468;DHT22;727;48.892;9.544;2022-10-04T02:22:01;4.90;99.90
1468;DHT22;727;48.892;9.544;2022-10-04T02:24:32;4.90;99.90
1468;DHT22;727;48.892;9.544;2022-10-04T02:27:02;4.90;99.90
1468;DHT22;727;48.892;9.544;2022-10-04T02:29:30;4.80;99.90
1468;DHT22;727;48.892;9.544;2022-10-04T02:31:58;4.80;99.90
1468;DHT22;727;48.892;9.544;2022-10-04T02:34:44;4.80;99.90
1468;DHT22;727;48.892;9.544;2022-10-04T02:37:12;4.80;99.90
1468;DHT22;727;48.892;9.544;2022-10-04T02:39:42;4.80;99.90
1468;DHT22;727;48.892;9.544;2022-10-04T02:42:18;4.80;99.90
1468;DHT22;727;48.892;9.544;2022-10-04T02:44:49;4.80;99.90
1468;DHT22;727;48.892;9.544;2022-10-04T02:47:19;4.90;99.90
1468;DHT22;727;48.892;9.544;2022-10-04T02:49:49;4.90;99.90
1468;DHT22;727;48.892;9.544;2022-10-04T02:52:22;4.90;99.90
1468;DHT22;727;48.892;9.544;2022-10-04T02:54:55;4.90;99.90
1468;DHT22;727;48.892;9.544;2022-10-04T02:57:27;5.00;99.90
1468;DHT22;727;48.892;9.544;2022-10-04T03:00:06;5.00;99.90
1468;DHT22;727;48.892;9.544;2022-10-04T03:02:35;5.10;99.90
1468;DHT22;727;48.892;9.544;2022-10-04T03:05:04;5.10;99.90
1468;DHT22;727;48.892;9.544;2022-10-04T03:07:33;5.10;99.90
1468;DHT22;727;48.892;9.544;2022-10-04T03:10:01;5.10;99.90
1468;DHT22;727;48.892;9.544;2022-10-04T03:12:34;5.10;99.90
1468;DHT22;727;48.892;9.544;2022-10-04T03:15:04;5.00;99.90
1468;DHT22;727;48.892;9.544;2022-10-04T03:17:31;5.10;99.90
1468;DHT22;727;48.892;9.544;2022-10-04T03:20:00;5.10;99.90
1468;DHT22;727;48.892;9.544;2022-10-04T03:22:26;5.10;99.90
1468;DHT22;727;48.892;9.544;2022-10-04T03:24:55;5.10;99.90
1468;DHT22;727;48.892;9.544;2022-10-04T03:27:25;5.10;99.90
1468;DHT22;727;48.892;9.544;2022-10-04T03:29:56;5.10;99.90
1468;DHT22;727;48.892;9.544;2022-10-04T03:32:24;5.00;99.90
1468;DHT22;727;48.892;9.544;2022-10-04T03:34:57;5.00;99.90
1468;DHT22;727;48.892;9.544;2022-10-04T03:37:26;5.00;99.90
1468;DHT22;727;48.892;9.544;2022-10-04T03:39:55;5.10;99.90
1468;DHT22;727;48.892;9.544;2022-10-04T03:42:24;5.10;99.90
1468;DHT22;727;48.892;9.544;2022-10-04T03:44:53;5.00;99.90
1468;DHT22;727;48.892;9.544;2022-10-04T03:47:25;5.00;99.90
1468;DHT22;727;48.892;9.544;2022-10-04T03:49:53;5.00;99.90
1468;DHT22;727;48.892;9.544;2022-10-04T03:52:25;4.90;99.90
1468;DHT22;727;48.892;9.544;2022-10-04T03:54:56;4.90;99.90
1468;DHT22;727;48.892;9.544;2022-10-04T03:57:24;4.80;99.90
1468;DHT22;727;48.892;9.544;2022-10-04T03:59:51;4.80;99.90
1468;DHT22;727;48.892;9.544;2022-10-04T04:02:32;4.80;99.90
1468;DHT22;727;48.892;9.544;2022-10-04T04:05:05;4.70;99.90
1468;DHT22;727;48.892;9.544;2022-10-04T04:07:38;4.70;99.90
1468;DHT22;727;48.892;9.544;2022-10-04T04:10:16;4.70;99.90
1468;DHT22;727;48.892;9.544;2022-10-04T04:12:45;4.70;99.90
1468;DHT22;727;48.892;9.544;2022-10-04T04:15:15;4.70;99.90
1468;DHT22;727;48.892;9.544;2022-10-04T04:17:46;4.70;99.90
1468;DHT22;727;48.892;9.544;2022-10-04T04:20:23;4.80;99.90
1468;DHT22;727;48.892;9.544;2022-10-04T04:22:58;4.80;99.90
1468;DHT22;727;48.892;9.544;2022-10-04T04:25:27;4.80;99.90
1468;DHT22;727;48.892;9.544;2022-10-04T04:28:00;4.80;99.90
1468;DHT22;727;48.892;9.544;2022-10-04T04:30:29;4.70;99.90
1468;DHT22;727;48.892;9.544;2022-10-04T04:33:06;4.70;99.90
1468;DHT22;727;48.892;9.544;2022-10-04T04:35:35;4.60;99.90
1468;DHT22;727;48.892;9.544;2022-10-04T04:38:13;4.60;99.90
1468;DHT22;727;48.892;9.544;2022-10-04T04:40:40;4.70;99.90
1468;DHT22;727;48.892;9.544;2022-10-04T04:43:13;4.70;99.90
1468;DHT22;727;48.892;9.544;2022-10-04T04:45:42;4.70;99.90
1468;DHT22;727;48.892;9.544;2022-10-04T04:48:13;4.60;99.90
1468;DHT22;727;48.892;9.544;2022-10-04T04:50:40;4.60;99.90
1468;DHT22;727;48.892;9.544;2022-10-04T04:53:13;4.60;99.90
1468;DHT22;727;48.892;9.544;2022-10-04T04:55:42;4.50;99.90
1468;DHT22;727;48.892;9.544;2022-10-04T04:58:15;4.50;99.90
1468;DHT22;727;48.892;9.544;2022-10-04T05:00:51;4.50;99.90
1468;DHT22;727;48.892;9.544;2022-10-04T05:03:21;4.50;99.90
1468;DHT22;727;48.892;9.544;2022-10-04T05:05:48;4.40;99.90
1468;DHT22;727;48.892;9.544;2022-10-04T05:08:19;4.40;99.90
1468;DHT22;727;48.892;9.544;2022-10-04T05:10:50;4.40;99.90
1468;DHT22;727;48.892;9.544;2022-10-04T05:13:22;4.40;99.90
1468;DHT22;727;48.892;9.544;2022-10-04T05:15:52;4.40;99.90
1468;DHT22;727;48.892;9.544;2022-10-04T05:18:27;4.40;99.90
1468;DHT22;727;48.892;9.544;2022-10-04T05:20:57;4.40;99.90
1468;DHT22;727;48.892;9.544;2022-10-04T05:23:24;4.40;99.90
1468;DHT22;727;48.892;9.544;2022-10-04T05:25:51;4.40;99.90
1468;DHT22;727;48.892;9.544;2022-10-04T05:28:18;4.40;99.90
1468;DHT22;727;48.892;9.544;2022-10-04T05:31:08;4.30;99.90
1468;DHT22;727;48.892;9.544;2022-10-04T05:33:45;4.40;99.90
1468;DHT22;727;48.892;9.544;2022-10-04T05:36:30;4.40;99.90
1468;DHT22;727;48.892;9.544;2022-10-04T05:39:05;4.40;99.90
1468;DHT22;727;48.892;9.544;2022-10-04T05:41:36;4.40;99.90
1468;DHT22;727;48.892;9.544;2022-10-04T05:44:19;4.40;99.90
1468;DHT22;727;48.892;9.544;2022-10-04T05:46:50;4.50;99.90
1468;DHT22;727;48.892;9.544;2022-10-04T05:49:20;4.50;99.90
1468;DHT22;727;48.892;9.544;2022-10-04T05:51:50;4.50;99.90
1468;DHT22;727;48.892;9.544;2022-10-04T05:54:20;4.60;99.90
1468;DHT22;727;48.892;9.544;2022-10-04T05:57:18;4.70;99.90
1468;DHT22;727;48.892;9.544;2022-10-04T05:59:53;4.80;99.90
1468;DHT22;727;48.892;9.544;2022-10-04T06:02:36;4.90;99.90
1468;DHT22;727;48.892;9.544;2022-10-04T06:05:20;5.00;99.90
1468;DHT22;727;48.892;9.544;2022-10-04T06:07:53;5.10;99.90
1468;DHT22;727;48.892;9.544;2022-10-04T06:10:47;5.20;99.90
1468;DHT22;727;48.892;9.544;2022-10-04T06:13:25;5.30;99.90
1468;DHT22;727;48.892;9.544;2022-10-04T06:16:08;5.50;99.90
1468;DHT22;727;48.892;9.544;2022-10-04T06:18:57;5.60;99.90
1468;DHT22;727;48.892;9.544;2022-10-04T06:21:29;5.60;99.90
1468;DHT22;727;48.892;9.544;2022-10-04T06:23:59;5.80;99.90
1468;DHT22;727;48.892;9.544;2022-10-04T06:26:31;5.80;99.90
1468;DHT22;727;48.892;9.544;2022-10-04T06:29:00;5.90;99.90
1468;DHT22;727;48.892;9.544;2022-10-04T06:31:54;6.00;99.90
1468;DHT22;727;48.892;9.544;2022-10-04T06:38:11;6.30;99.90
1468;DHT22;727;48.892;9.544;2022-10-04T06:43:59;6.40;99.90
1468;DHT22;727;48.892;9.544;2022-10-04T06:46:39;6.50;99.90
1468;DHT22;727;48.892;9.544;2022-10-04T06:49:32;6.60;99.90
1468;DHT22;727;48.892;9.544;2022-10-04T06:55:15;6.70;99.90
1468;DHT22;727;48.892;9.544;2022-10-04T06:58:01;6.80;99.90
1468;DHT22;727;48.892;9.544;2022-10-04T07:00:36;6.90;99.90
1468;DHT22;727;48.892;9.544;2022-10-04T07:03:11;7.00;99.90
1468;DHT22;727;48.892;9.544;2022-10-04T07:05:44;7.10;99.90
1468;DHT22;727;48.892;9.544;2022-10-04T07:08:17;7.20;99.90
1468;DHT22;727;48.892;9.544;2022-10-04T07:10:59;7.50;99.90
1468;DHT22;727;48.892;9.544;2022-10-04T07:13:37;8.00;99.90
1468;DHT22;727;48.892;9.544;2022-10-04T07:16:16;8.50;99.90
1468;DHT22;727;48.892;9.544;2022-10-04T07:18:54;9.00;99.90
1468;DHT22;727;48.892;9.544;2022-10-04T07:21:23;9.50;99.90
1468;DHT22;727;48.892;9.544;2022-10-04T07:23:54;9.70;99.90
1468;DHT22;727;48.892;9.544;2022-10-04T07:26:27;9.60;99.90
1468;DHT22;727;48.892;9.544;2022-10-04T07:28:56;9.50;99.90
1468;DHT22;727;48.892;9.544;2022-10-04T07:31:43;9.30;99.90
1468;DHT22;727;48.892;9.544;2022-10-04T07:34:16;9.20;99.90
1468;DHT22;727;48.892;9.544;2022-10-04T07:36:48;9.10;99.90
1468;DHT22;727;48.892;9.544;2022-10-04T07:39:17;9.10;99.90
1468;DHT22;727;48.892;9.544;2022-10-04T07:41:52;9.20;99.90
1468;DHT22;727;48.892;9.544;2022-10-04T07:44:28;9.20;99.90
1468;DHT22;727;48.892;9.544;2022-10-04T07:46:58;9.10;99.90
1468;DHT22;727;48.892;9.544;2022-10-04T07:49:26;9.20;99.90
1468;DHT22;727;48.892;9.544;2022-10-04T07:52:05;9.20;99.90
1468;DHT22;727;48.892;9.544;2022-10-04T07:54:38;9.20;99.90
1468;DHT22;727;48.892;9.544;2022-10-04T07:57:13;9.30;99.90
1468;DHT22;727;48.892;9.544;2022-10-04T07:59:47;9.30;99.90
1468;DHT22;727;48.892;9.544;2022-10-04T08:02:23;9.40;99.90
1468;DHT22;727;48.892;9.544;2022-10-04T08:05:01;9.60;99.90
1468;DHT22;727;48.892;9.544;2022-10-04T08:07:46;9.70;99.90
1468;DHT22;727;48.892;9.544;2022-10-04T08:10:25;9.80;99.90
1468;DHT22;727;48.892;9.544;2022-10-04T08:13:03;10.00;99.90
1468;DHT22;727;48.892;9.544;2022-10-04T08:15:36;10.30;99.90
1468;DHT22;727;48.892;9.544;2022-10-04T08:20:55;10.90;99.90
1468;DHT22;727;48.892;9.544;2022-10-04T08:23:39;11.30;99.90
1468;DHT22;727;48.892;9.544;2022-10-04T08:26:24;11.90;99.90
1468;DHT22;727;48.892;9.544;2022-10-04T08:29:02;12.60;99.90
1468;DHT22;727;48.892;9.544;2022-10-04T08:31:57;13.20;99.90
1468;DHT22;727;48.892;9.544;2022-10-04T08:35:04;14.10;99.90
1468;DHT22;727;48.892;9.544;2022-10-04T08:37:47;14.80;99.90
1468;DHT22;727;48.892;9.544;2022-10-04T08:44:05;16.50;99.70
1468;DHT22;727;48.892;9.544;2022-10-04T08:47:37;16.80;97.80
1468;DHT22;727;48.892;9.544;2022-10-04T08:54:14;17.10;96.00
1468;DHT22;727;48.892;9.544;2022-10-04T09:13:33;22.10;81.00
1468;DHT22;727;48.892;9.544;2022-10-04T09:16:13;22.20;79.00
1468;DHT22;727;48.892;9.544;2022-10-04T09:18:54;22.40;78.00
1468;DHT22;727;48.892;9.544;2022-10-04T09:21:41;21.60;78.50
1468;DHT22;727;48.892;9.544;2022-10-04T09:24:19;21.70;79.00
1468;DHT22;727;48.892;9.544;2022-10-04T09:26:58;22.10;77.60
1468;DHT22;727;48.892;9.544;2022-10-04T09:29:50;22.80;76.80
1468;DHT22;727;48.892;9.544;2022-10-04T09:36:06;24.10;70.20
1468;DHT22;727;48.892;9.544;2022-10-04T09:39:09;24.00;68.70
1468;DHT22;727;48.892;9.544;2022-10-04T09:41:45;23.90;68.00
1468;DHT22;727;48.892;9.544;2022-10-04T09:44:36;23.40;69.10
1468;DHT22;727;48.892;9.544;2022-10-04T09:47:29;23.10;69.60
1468;DHT22;727;48.892;9.544;2022-10-04T09:53:28;24.40;67.70
1468;DHT22;727;48.892;9.544;2022-10-04T09:56:36;24.40;65.60
1468;DHT22;727;48.892;9.544;2022-10-04T09:59:41;24.60;65.40
1468;DHT22;727;48.892;9.544;2022-10-04T10:05:37;25.50;62.80
1468;DHT22;727;48.892;9.544;2022-10-04T10:08:17;25.50;62.10
1468;DHT22;727;48.892;9.544;2022-10-04T10:10:55;25.40;62.40
1468;DHT22;727;48.892;9.544;2022-10-04T10:16:58;25.40;61.90
1468;DHT22;727;48.892;9.544;2022-10-04T10:19:56;25.90;61.30
1468;DHT22;727;48.892;9.544;2022-10-04T10:23:01;26.00;59.30
1468;DHT22;727;48.892;9.544;2022-10-04T10:25:51;26.90;58.30
1468;DHT22;727;48.892;9.544;2022-10-04T10:28:41;26.60;57.70
1468;DHT22;727;48.892;9.544;2022-10-04T10:31:31;26.90;57.90
1468;DHT22;727;48.892;9.544;2022-10-04T10:37:28;27.00;57.20
1468;DHT22;727;48.892;9.544;2022-10-04T10:40:24;27.10;56.30
1468;DHT22;727;48.892;9.544;2022-10-04T10:43:18;27.10;57.70
1468;DHT22;727;48.892;9.544;2022-10-04T10:46:00;26.90;57.40
1468;DHT22;727;48.892;9.544;2022-10-04T10:48:42;27.40;57.10
1468;DHT22;727;48.892;9.544;2022-10-04T10:51:16;27.40;56.20
1468;DHT22;727;48.892;9.544;2022-10-04T10:54:09;27.40;56.60
1468;DHT22;727;48.892;9.544;2022-10-04T10:56:54;27.60;56.50
1468;DHT22;727;48.892;9.544;2022-10-04T11:02:59;28.30;53.30
1468;DHT22;727;48.892;9.544;2022-10-04T11:05:46;28.10;54.50
1468;DHT22;727;48.892;9.544;2022-10-04T11:08:44;28.50;52.80
1468;DHT22;727;48.892;9.544;2022-10-04T11:11:41;29.00;52.10
1468;DHT22;727;48.892;9.544;2022-10-04T11:17:39;29.70;50.80
1468;DHT22;727;48.892;9.544;2022-10-04T11:23:49;29.40;51.00
1468;DHT22;727;48.892;9.544;2022-10-04T11:29:38;29.90;50.70
1468;DHT22;727;48.892;9.544;2022-10-04T11:32:42;29.50;48.40
1468;DHT22;727;48.892;9.544;2022-10-04T11:35:46;29.50;48.90
1468;DHT22;727;48.892;9.544;2022-10-04T11:38:24;28.70;49.90
1468;DHT22;727;48.892;9.544;2022-10-04T11:41:08;28.70;50.80
1468;DHT22;727;48.892;9.544;2022-10-04T11:43:57;28.50;50.50
1468;DHT22;727;48.892;9.544;2022-10-04T11:46:36;28.50;50.30
1468;DHT22;727;48.892;9.544;2022-10-04T11:49:12;28.60;50.10
1468;DHT22;727;48.892;9.544;2022-10-04T11:52:17;28.40;50.40
1468;DHT22;727;48.892;9.544;2022-10-04T11:57:54;29.40;48.70
1468;DHT22;727;48.892;9.544;2022-10-04T12:00:26;29.10;48.80
1468;DHT22;727;48.892;9.544;2022-10-04T12:03:29;29.10;50.80
1468;DHT22;727;48.892;9.544;2022-10-04T12:06:16;29.20;48.00
1468;DHT22;727;48.892;9.544;2022-10-04T12:08:57;29.30;48.60
1468;DHT22;727;48.892;9.544;2022-10-04T12:11:56;28.60;49.30
1468;DHT22;727;48.892;9.544;2022-10-04T12:15:01;28.00;51.00
1468;DHT22;727;48.892;9.544;2022-10-04T12:18:04;27.60;50.50
1468;DHT22;727;48.892;9.544;2022-10-04T12:26:59;27.90;50.80
1468;DHT22;727;48.892;9.544;2022-10-04T12:29:59;27.70;50.70
1468;DHT22;727;48.892;9.544;2022-10-04T12:32:33;27.10;51.20
1468;DHT22;727;48.892;9.544;2022-10-04T12:35:13;27.20;51.40
1468;DHT22;727;48.892;9.544;2022-10-04T12:38:07;27.20;53.00
1468;DHT22;727;48.892;9.544;2022-10-04T12:40:42;27.90;50.40
1468;DHT22;727;48.892;9.544;2022-10-04T12:43:18;27.60;50.60
1468;DHT22;727;48.892;9.544;2022-10-04T12:45:58;27.60;50.00
1468;DHT22;727;48.892;9.544;2022-10-04T12:48:42;27.50;50.80
1468;DHT22;727;48.892;9.544;2022-10-04T12:51:34;27.70;51.40
1468;DHT22;727;48.892;9.544;2022-10-04T12:54:22;28.30;49.30
1468;DHT22;727;48.892;9.544;2022-10-04T12:57:00;28.10;49.40
1468;DHT22;727;48.892;9.544;2022-10-04T12:59:39;27.60;50.40
1468;DHT22;727;48.892;9.544;2022-10-04T13:02:20;27.60;50.70
1468;DHT22;727;48.892;9.544;2022-10-04T13:04:53;28.10;49.00
1468;DHT22;727;48.892;9.544;2022-10-04T13:07:47;28.00;48.60
1468;DHT22;727;48.892;9.544;2022-10-04T13:10:31;27.90;49.00
1468;DHT22;727;48.892;9.544;2022-10-04T13:16:16;28.50;50.40
1468;DHT22;727;48.892;9.544;2022-10-04T13:18:52;28.50;48.80
1468;DHT22;727;48.892;9.544;2022-10-04T13:21:51;28.80;48.20
1468;DHT22;727;48.892;9.544;2022-10-04T13:24:25;27.70;49.70
1468;DHT22;727;48.892;9.544;2022-10-04T13:27:24;27.50;49.10
1468;DHT22;727;48.892;9.544;2022-10-04T13:29:59;27.70;49.30
1468;DHT22;727;48.892;9.544;2022-10-04T13:32:31;28.00;48.90
1468;DHT22;727;48.892;9.544;2022-10-04T13:35:05;27.90;48.00
1468;DHT22;727;48.892;9.544;2022-10-04T13:37:43;27.20;48.10
1468;DHT22;727;48.892;9.544;2022-10-04T13:40:29;26.20;49.70
1468;DHT22;727;48.892;9.544;2022-10-04T13:43:20;25.10;53.60
1468;DHT22;727;48.892;9.544;2022-10-04T13:46:15;24.60;53.50
1468;DHT22;727;48.892;9.544;2022-10-04T13:48:53;24.00;55.60
1468;DHT22;727;48.892;9.544;2022-10-04T13:54:45;23.30;54.60
1468;DHT22;727;48.892;9.544;2022-10-04T13:57:40;23.00;55.50
1468;DHT22;727;48.892;9.544;2022-10-04T14:00:16;22.80;55.40
1468;DHT22;727;48.892;9.544;2022-10-04T14:03:02;22.50;56.30
1468;DHT22;727;48.892;9.544;2022-10-04T14:06:04;22.20;58.20
1468;DHT22;727;48.892;9.544;2022-10-04T14:15:19;21.70;59.80
1468;DHT22;727;48.892;9.544;2022-10-04T14:21:31;21.60;62.50
1468;DHT22;727;48.892;9.544;2022-10-04T14:30:21;21.30;65.40
1468;DHT22;727;48.892;9.544;2022-10-04T14:33:09;21.20;64.60
1468;DHT22;727;48.892;9.544;2022-10-04T14:35:43;21.10;64.70
1468;DHT22;727;48.892;9.544;2022-10-04T14:38:37;21.00;65.70
1468;DHT22;727;48.892;9.544;2022-10-04T14:44:33;20.80;66.50
1468;DHT22;727;48.892;9.544;2022-10-04T14:47:26;20.70;65.60
1468;DHT22;727;48.892;9.544;2022-10-04T14:50:19;20.60;68.60
1468;DHT22;727;48.892;9.544;2022-10-04T14:53:02;20.50;69.70
1468;DHT22;727;48.892;9.544;2022-10-04T14:55:54;20.30;71.00
1468;DHT22;727;48.892;9.544;2022-10-04T14:58:33;20.20;71.00
1468;DHT22;727;48.892;9.544;2022-10-04T15:01:18;20.00;72.70
1468;DHT22;727;48.892;9.544;2022-10-04T15:04:13;20.00;73.30
1468;DHT22;727;48.892;9.544;2022-10-04T15:06:47;19.80;74.70
1468;DHT22;727;48.892;9.544;2022-10-04T15:09:32;19.70;75.40
1468;DHT22;727;48.892;9.544;2022-10-04T15:12:37;19.60;75.00
1468;DHT22;727;48.892;9.544;2022-10-04T15:15:20;19.60;73.30
1468;DHT22;727;48.892;9.544;2022-10-04T15:17:57;19.50;76.00
1468;DHT22;727;48.892;9.544;2022-10-04T15:20:34;19.30;78.10
1468;DHT22;727;48.892;9.544;2022-10-04T15:23:13;19.20;77.60
1468;DHT22;727;48.892;9.544;2022-10-04T15:25:42;19.00;79.30
1468;DHT22;727;48.892;9.544;2022-10-04T15:28:32;18.90;80.70
1468;DHT22;727;48.892;9.544;2022-10-04T15:31:09;18.80;81.50
1468;DHT22;727;48.892;9.544;2022-10-04T15:33:42;18.70;82.90
1468;DHT22;727;48.892;9.544;2022-10-04T15:36:31;18.50;85.00
1468;DHT22;727;48.892;9.544;2022-10-04T15:39:07;18.10;87.90
1468;DHT22;727;48.892;9.544;2022-10-04T15:41:51;17.90;90.10
1468;DHT22;727;48.892;9.544;2022-10-04T15:44:41;17.60;91.10
1468;DHT22;727;48.892;9.544;2022-10-04T15:47:14;17.40;92.30
1468;DHT22;727;48.892;9.544;2022-10-04T15:50:01;17.20;93.50
1468;DHT22;727;48.892;9.544;2022-10-04T15:56:07;16.70;96.10
1468;DHT22;727;48.892;9.544;2022-10-04T15:58:48;16.50;97.50
1468;DHT22;727;48.892;9.544;2022-10-04T16:01:31;16.30;98.60
1468;DHT22;727;48.892;9.544;2022-10-04T16:06:59;16.00;99.90
1468;DHT22;727;48.892;9.544;2022-10-04T16:09:37;15.80;99.90
1468;DHT22;727;48.892;9.544;2022-10-04T16:12:21;15.60;99.90
1468;DHT22;727;48.892;9.544;2022-10-04T16:15:14;15.40;99.90
1468;DHT22;727;48.892;9.544;2022-10-04T16:17:57;15.20;99.90
1468;DHT22;727;48.892;9.544;2022-10-04T16:20:52;15.00;99.90
1468;DHT22;727;48.892;9.544;2022-10-04T16:23:32;14.90;99.90
1468;DHT22;727;48.892;9.544;2022-10-04T16:26:02;14.70;99.90
1468;DHT22;727;48.892;9.544;2022-10-04T16:28:56;14.50;99.90
1468;DHT22;727;48.892;9.544;2022-10-04T16:31:47;14.40;99.90
1468;DHT22;727;48.892;9.544;2022-10-04T16:34:38;14.20;99.90
1468;DHT22;727;48.892;9.544;2022-10-04T16:37:16;14.00;99.90
1468;DHT22;727;48.892;9.544;2022-10-04T16:39:50;13.90;99.90
1468;DHT22;727;48.892;9.544;2022-10-04T16:42:45;13.70;99.90
1468;DHT22;727;48.892;9.544;2022-10-04T16:46:01;13.60;99.90
1468;DHT22;727;48.892;9.544;2022-10-04T16:48:45;13.40;99.90
1468;DHT22;727;48.892;9.544;2022-10-04T16:51:33;13.30;99.90
1468;DHT22;727;48.892;9.544;2022-10-04T16:54:15;13.20;99.90
1468;DHT22;727;48.892;9.544;2022-10-04T16:57:17;13.10;99.90
1468;DHT22;727;48.892;9.544;2022-10-04T16:59:49;13.00;99.90
1468;DHT22;727;48.892;9.544;2022-10-04T17:02:57;13.00;99.90
1468;DHT22;727;48.892;9.544;2022-10-04T17:05:43;12.90;99.90
1468;DHT22;727;48.892;9.544;2022-10-04T17:08:23;12.80;99.90
1468;DHT22;727;48.892;9.544;2022-10-04T17:11:13;12.70;99.90
1468;DHT22;727;48.892;9.544;2022-10-04T17:13:52;12.60;99.90
1468;DHT22;727;48.892;9.544;2022-10-04T17:16:26;12.50;99.90
1468;DHT22;727;48.892;9.544;2022-10-04T17:19:13;12.40;99.90
1468;DHT22;727;48.892;9.544;2022-10-04T17:22:04;12.40;99.90
1468;DHT22;727;48.892;9.544;2022-10-04T17:27:40;12.10;99.90
1468;DHT22;727;48.892;9.544;2022-10-04T17:30:17;12.10;99.90
1468;DHT22;727;48.892;9.544;2022-10-04T17:33:18;12.00;99.90
1468;DHT22;727;48.892;9.544;2022-10-04T17:36:09;12.00;99.90
1468;DHT22;727;48.892;9.544;2022-10-04T17:38:44;11.90;99.90
1468;DHT22;727;48.892;9.544;2022-10-04T17:41:16;11.90;99.90
1468;DHT22;727;48.892;9.544;2022-10-04T17:44:05;11.80;99.90
1468;DHT22;727;48.892;9.544;2022-10-04T17:46:40;11.80;99.90
1468;DHT22;727;48.892;9.544;2022-10-04T17:49:15;11.80;99.90
1468;DHT22;727;48.892;9.544;2022-10-04T17:52:15;11.80;99.90
1468;DHT22;727;48.892;9.544;2022-10-04T17:55:10;11.70;99.90
1468;DHT22;727;48.892;9.544;2022-10-04T17:57:48;11.70;99.90
1468;DHT22;727;48.892;9.544;2022-10-04T18:00:18;11.60;99.90
1468;DHT22;727;48.892;9.544;2022-10-04T18:03:04;11.50;99.90
1468;DHT22;727;48.892;9.544;2022-10-04T18:05:43;11.40;99.90
1468;DHT22;727;48.892;9.544;2022-10-04T18:08:16;11.40;99.90
1468;DHT22;727;48.892;9.544;2022-10-04T18:10:47;11.30;99.90
1468;DHT22;727;48.892;9.544;2022-10-04T18:13:22;11.30;99.90
1468;DHT22;727;48.892;9.544;2022-10-04T18:15:57;11.20;99.90
1468;DHT22;727;48.892;9.544;2022-10-04T18:18:28;11.30;99.90
1468;DHT22;727;48.892;9.544;2022-10-04T18:21:17;11.20;99.90
1468;DHT22;727;48.892;9.544;2022-10-04T18:23:53;11.30;99.90
1468;DHT22;727;48.892;9.544;2022-10-04T18:26:21;11.20;99.90
1468;DHT22;727;48.892;9.544;2022-10-04T18:28:51;11.20;99.90
1468;DHT22;727;48.892;9.544;2022-10-04T18:31:31;11.10;99.90
1468;DHT22;727;48.892;9.544;2022-10-04T18:34:02;11.10;99.90
1468;DHT22;727;48.892;9.544;2022-10-04T18:36:50;11.10;99.90
1468;DHT22;727;48.892;9.544;2022-10-04T18:39:21;11.00;99.90
1468;DHT22;727;48.892;9.544;2022-10-04T18:42:16;11.00;99.90
1468;DHT22;727;48.892;9.544;2022-10-04T18:44:46;11.00;99.90
1468;DHT22;727;48.892;9.544;2022-10-04T18:47:23;11.00;99.90
1468;DHT22;727;48.892;9.544;2022-10-04T18:49:53;11.00;99.90
1468;DHT22;727;48.892;9.544;2022-10-04T18:52:29;10.90;99.90
1468;DHT22;727;48.892;9.544;2022-10-04T18:55:15;10.90;99.90
1468;DHT22;727;48.892;9.544;2022-10-04T18:57:51;10.80;99.90
1468;DHT22;727;48.892;9.544;2022-10-04T19:00:40;10.80;99.90
1468;DHT22;727;48.892;9.544;2022-10-04T19:03:32;10.80;99.90
1468;DHT22;727;48.892;9.544;2022-10-04T19:06:10;10.80;99.90
1468;DHT22;727;48.892;9.544;2022-10-04T19:08:50;10.80;99.90
1468;DHT22;727;48.892;9.544;2022-10-04T19:11:23;10.80;99.90
1468;DHT22;727;48.892;9.544;2022-10-04T19:13:56;10.80;99.90
1468;DHT22;727;48.892;9.544;2022-10-04T19:16:34;10.80;99.90
1468;DHT22;727;48.892;9.544;2022-10-04T19:19:18;10.80;99.90
1468;DHT22;727;48.892;9.544;2022-10-04T19:21:56;10.70;99.90
1468;DHT22;727;48.892;9.544;2022-10-04T19:24:43;10.60;99.90
1468;DHT22;727;48.892;9.544;2022-10-04T19:27:20;10.60;99.90
1468;DHT22;727;48.892;9.544;2022-10-04T19:30:13;10.60;99.90
1468;DHT22;727;48.892;9.544;2022-10-04T19:32:58;10.60;99.90
1468;DHT22;727;48.892;9.544;2022-10-04T19:35:48;10.50;99.90
1468;DHT22;727;48.892;9.544;2022-10-04T19:38:29;10.50;99.90
1468;DHT22;727;48.892;9.544;2022-10-04T19:41:04;10.40;99.90
1468;DHT22;727;48.892;9.544;2022-10-04T19:43:39;10.40;99.90